sensor_id;sensor_type;location;lat;lon;timestamp;temperature;humidity
35962;DHT22;22044;48.298;10.008;2023-02-20T00:01:55;6.70;99.90
35962;DHT22;22044;48.298;10.008;2023-02-20T00:04:40;6.70;99.90
35962;DHT22;22044;48.298;10.008;2023-02-20T00:07:26;6.70;99.90
35962;DHT22;22044;48.298;10.008;2023-02-20T00:10:13;6.60;99.90
35962;DHT22;22044;48.298;10.008;2023-02-20T00:12:59;6.60;99.90
35962;DHT22;22044;48.298;10.008;2023-02-20T00:15:44;6.70;99.90
35962;DHT22;22044;48.298;10.008;2023-02-20T00:18:30;6.70;99.90
35962;DHT22;22044;48.298;10.008;2023-02-20T00:21:16;6.70;99.90
35962;DHT22;22044;48.298;10.008;2023-02-20T00:24:02;6.70;99.90
35962;DHT22;22044;48.298;10.008;2023-02-20T00:26:49;6.70;99.90
35962;DHT22;22044;48.298;10.008;2023-02-20T00:29:35;6.70;99.90
35962;DHT22;22044;48.298;10.008;2023-02-20T00:32:21;6.70;99.90
35962;DHT22;22044;48.298;10.008;2023-02-20T00:35:08;6.70;99.90
35962;DHT22;22044;48.298;10.008;2023-02-20T00:37:54;6.70;99.90
35962;DHT22;22044;48.298;10.008;2023-02-20T00:40:40;6.70;99.90
35962;DHT22;22044;48.298;10.008;2023-02-20T00:43:27;6.70;99.90
35962;DHT22;22044;48.298;10.008;2023-02-20T00:46:16;6.70;99.90
35962;DHT22;22044;48.298;10.008;2023-02-20T00:49:02;6.70;99.90
35962;DHT22;22044;48.298;10.008;2023-02-20T00:52:03;6.80;99.90
35962;DHT22;22044;48.298;10.008;2023-02-20T00:54:49;6.80;99.90
35962;DHT22;22044;48.298;10.008;2023-02-20T00:57:36;6.70;99.90
35962;DHT22;22044;48.298;10.008;2023-02-20T01:00:25;6.70;99.90
35962;DHT22;22044;48.298;10.008;2023-02-20T01:03:11;6.80;99.90
35962;DHT22;22044;48.298;10.008;2023-02-20T01:05:57;6.80;99.90
35962;DHT22;22044;48.298;10.008;2023-02-20T01:08:43;6.80;99.90
35962;DHT22;22044;48.298;10.008;2023-02-20T01:11:29;6.80;99.90
35962;DHT22;22044;48.298;10.008;2023-02-20T01:14:16;6.80;99.90
35962;DHT22;22044;48.298;10.008;2023-02-20T01:17:03;6.80;99.90
35962;DHT22;22044;48.298;10.008;2023-02-20T01:19:49;6.80;99.90
35962;DHT22;22044;48.298;10.008;2023-02-20T01:22:37;6.70;99.90
35962;DHT22;22044;48.298;10.008;2023-02-20T01:25:28;6.80;99.90
35962;DHT22;22044;48.298;10.008;2023-02-20T01:28:13;6.80;99.90
35962;DHT22;22044;48.298;10.008;2023-02-20T01:30:59;6.80;99.90
35962;DHT22;22044;48.298;10.008;2023-02-20T01:33:46;6.70;99.90
35962;DHT22;22044;48.298;10.008;2023-02-20T01:36:31;6.70;99.90
35962;DHT22;22044;48.298;10.008;2023-02-20T01:39:18;6.70;99.90
35962;DHT22;22044;48.298;10.008;2023-02-20T01:42:06;6.60;99.90
35962;DHT22;22044;48.298;10.008;2023-02-20T01:44:54;6.60;99.90
35962;DHT22;22044;48.298;10.008;2023-02-20T01:47:40;6.60;99.90
35962;DHT22;22044;48.298;10.008;2023-02-20T01:50:29;6.60;99.90
35962;DHT22;22044;48.298;10.008;2023-02-20T01:53:20;6.60;99.90
35962;DHT22;22044;48.298;10.008;2023-02-20T01:56:07;6.70;99.90
35962;DHT22;22044;48.298;10.008;2023-02-20T01:58:53;6.70;99.90
35962;DHT22;22044;48.298;10.008;2023-02-20T02:01:40;6.60;99.90
35962;DHT22;22044;48.298;10.008;2023-02-20T02:04:26;6.60;99.90
35962;DHT22;22044;48.298;10.008;2023-02-20T02:07:14;6.60;99.90
35962;DHT22;22044;48.298;10.008;2023-02-20T02:10:02;6.60;99.90
35962;DHT22;22044;48.298;10.008;2023-02-20T02:12:50;6.50;99.90
35962;DHT22;22044;48.298;10.008;2023-02-20T02:15:37;6.50;99.90
35962;DHT22;22044;48.298;10.008;2023-02-20T02:18:41;6.50;99.90
35962;DHT22;22044;48.298;10.008;2023-02-20T02:25:06;6.60;99.90
35962;DHT22;22044;48.298;10.008;2023-02-20T02:28:29;6.60;99.90
35962;DHT22;22044;48.298;10.008;2023-02-20T02:31:51;6.60;99.90
35962;DHT22;22044;48.298;10.008;2023-02-20T02:35:06;6.50;99.90
35962;DHT22;22044;48.298;10.008;2023-02-20T02:38:06;6.60;99.90
35962;DHT22;22044;48.298;10.008;2023-02-20T02:40:56;6.50;99.90
35962;DHT22;22044;48.298;10.008;2023-02-20T02:43:51;6.50;99.90
35962;DHT22;22044;48.298;10.008;2023-02-20T02:46:42;6.50;99.90
35962;DHT22;22044;48.298;10.008;2023-02-20T02:49:35;6.50;99.90
35962;DHT22;22044;48.298;10.008;2023-02-20T02:52:23;6.50;99.90
35962;DHT22;22044;48.298;10.008;2023-02-20T02:55:31;6.40;99.90
35962;DHT22;22044;48.298;10.008;2023-02-20T02:58:18;6.50;99.90
35962;DHT22;22044;48.298;10.008;2023-02-20T03:01:04;6.30;99.90
35962;DHT22;22044;48.298;10.008;2023-02-20T03:03:53;6.30;99.90
35962;DHT22;22044;48.298;10.008;2023-02-20T03:06:42;6.30;99.90
35962;DHT22;22044;48.298;10.008;2023-02-20T03:09:31;6.30;99.90
35962;DHT22;22044;48.298;10.008;2023-02-20T03:12:21;6.30;99.90
35962;DHT22;22044;48.298;10.008;2023-02-20T03:15:10;6.20;99.90
35962;DHT22;22044;48.298;10.008;2023-02-20T03:18:22;6.20;99.90
35962;DHT22;22044;48.298;10.008;2023-02-20T03:21:13;6.20;99.90
35962;DHT22;22044;48.298;10.008;2023-02-20T03:24:01;6.20;99.90
35962;DHT22;22044;48.298;10.008;2023-02-20T03:26:48;6.20;99.90
35962;DHT22;22044;48.298;10.008;2023-02-20T03:29:37;6.10;99.90
35962;DHT22;22044;48.298;10.008;2023-02-20T03:32:25;6.00;99.90
35962;DHT22;22044;48.298;10.008;2023-02-20T03:35:31;6.00;99.90
35962;DHT22;22044;48.298;10.008;2023-02-20T03:38:37;6.00;99.90
35962;DHT22;22044;48.298;10.008;2023-02-20T03:41:43;6.00;99.90
35962;DHT22;22044;48.298;10.008;2023-02-20T03:44:50;5.90;99.90
35962;DHT22;22044;48.298;10.008;2023-02-20T03:47:40;5.90;99.90
35962;DHT22;22044;48.298;10.008;2023-02-20T03:50:30;5.90;99.90
35962;DHT22;22044;48.298;10.008;2023-02-20T03:53:16;5.80;99.90
35962;DHT22;22044;48.298;10.008;2023-02-20T03:56:05;5.80;99.90
35962;DHT22;22044;48.298;10.008;2023-02-20T03:58:54;5.80;99.90
35962;DHT22;22044;48.298;10.008;2023-02-20T04:01:46;5.70;99.90
35962;DHT22;22044;48.298;10.008;2023-02-20T04:04:36;5.70;99.90
35962;DHT22;22044;48.298;10.008;2023-02-20T04:07:26;5.70;99.90
35962;DHT22;22044;48.298;10.008;2023-02-20T04:10:14;5.70;99.90
35962;DHT22;22044;48.298;10.008;2023-02-20T04:13:03;5.70;99.90
35962;DHT22;22044;48.298;10.008;2023-02-20T04:15:50;5.60;99.90
35962;DHT22;22044;48.298;10.008;2023-02-20T04:18:38;5.60;99.90
35962;DHT22;22044;48.298;10.008;2023-02-20T04:21:28;5.60;99.90
35962;DHT22;22044;48.298;10.008;2023-02-20T04:24:20;5.60;99.90
35962;DHT22;22044;48.298;10.008;2023-02-20T04:27:07;5.50;99.90
35962;DHT22;22044;48.298;10.008;2023-02-20T04:29:59;5.60;99.90
35962;DHT22;22044;48.298;10.008;2023-02-20T04:32:45;5.60;99.90
35962;DHT22;22044;48.298;10.008;2023-02-20T04:35:32;5.50;99.90
35962;DHT22;22044;48.298;10.008;2023-02-20T04:38:18;5.50;99.90
35962;DHT22;22044;48.298;10.008;2023-02-20T04:41:04;5.40;99.90
35962;DHT22;22044;48.298;10.008;2023-02-20T04:43:50;5.40;99.90
35962;DHT22;22044;48.298;10.008;2023-02-20T04:46:57;5.40;99.90
35962;DHT22;22044;48.298;10.008;2023-02-20T04:49:44;5.30;99.90
35962;DHT22;22044;48.298;10.008;2023-02-20T04:52:35;5.30;99.90
35962;DHT22;22044;48.298;10.008;2023-02-20T04:55:22;5.30;99.90
35962;DHT22;22044;48.298;10.008;2023-02-20T04:58:10;5.20;99.90
35962;DHT22;22044;48.298;10.008;2023-02-20T05:01:07;5.20;99.90
35962;DHT22;22044;48.298;10.008;2023-02-20T05:03:53;5.10;99.90
35962;DHT22;22044;48.298;10.008;2023-02-20T05:06:40;5.10;99.90
35962;DHT22;22044;48.298;10.008;2023-02-20T05:09:27;5.10;99.90
35962;DHT22;22044;48.298;10.008;2023-02-20T05:12:13;5.10;99.90
35962;DHT22;22044;48.298;10.008;2023-02-20T05:14:59;5.10;99.90
35962;DHT22;22044;48.298;10.008;2023-02-20T05:17:44;5.00;99.90
35962;DHT22;22044;48.298;10.008;2023-02-20T05:20:31;4.90;99.90
35962;DHT22;22044;48.298;10.008;2023-02-20T05:23:35;4.80;99.90
35962;DHT22;22044;48.298;10.008;2023-02-20T05:26:22;4.70;99.90
35962;DHT22;22044;48.298;10.008;2023-02-20T05:29:07;4.50;99.90
35962;DHT22;22044;48.298;10.008;2023-02-20T05:31:55;4.50;99.90
35962;DHT22;22044;48.298;10.008;2023-02-20T05:34:41;4.40;99.90
35962;DHT22;22044;48.298;10.008;2023-02-20T05:37:27;4.40;99.90
35962;DHT22;22044;48.298;10.008;2023-02-20T05:40:12;4.30;99.90
35962;DHT22;22044;48.298;10.008;2023-02-20T05:42:59;4.20;99.90
35962;DHT22;22044;48.298;10.008;2023-02-20T05:45:45;4.20;99.90
35962;DHT22;22044;48.298;10.008;2023-02-20T05:48:31;4.30;99.90
35962;DHT22;22044;48.298;10.008;2023-02-20T05:51:21;4.30;99.90
35962;DHT22;22044;48.298;10.008;2023-02-20T05:54:07;4.30;99.90
35962;DHT22;22044;48.298;10.008;2023-02-20T05:56:53;4.30;99.90
35962;DHT22;22044;48.298;10.008;2023-02-20T05:59:40;4.30;99.90
35962;DHT22;22044;48.298;10.008;2023-02-20T06:02:25;4.40;99.90
35962;DHT22;22044;48.298;10.008;2023-02-20T06:05:11;4.50;99.90
35962;DHT22;22044;48.298;10.008;2023-02-20T06:07:56;4.50;99.90
35962;DHT22;22044;48.298;10.008;2023-02-20T06:10:42;4.50;99.90
35962;DHT22;22044;48.298;10.008;2023-02-20T06:13:27;4.60;99.90
35962;DHT22;22044;48.298;10.008;2023-02-20T06:16:21;4.60;99.90
35962;DHT22;22044;48.298;10.008;2023-02-20T06:19:07;4.60;99.90
35962;DHT22;22044;48.298;10.008;2023-02-20T06:21:53;4.60;99.90
35962;DHT22;22044;48.298;10.008;2023-02-20T06:24:39;4.70;99.90
35962;DHT22;22044;48.298;10.008;2023-02-20T06:27:24;4.70;99.90
35962;DHT22;22044;48.298;10.008;2023-02-20T06:30:11;4.70;99.90
35962;DHT22;22044;48.298;10.008;2023-02-20T06:32:58;4.70;99.90
35962;DHT22;22044;48.298;10.008;2023-02-20T06:35:43;4.70;99.90
35962;DHT22;22044;48.298;10.008;2023-02-20T06:38:29;4.70;99.90
35962;DHT22;22044;48.298;10.008;2023-02-20T06:41:15;4.70;99.90
35962;DHT22;22044;48.298;10.008;2023-02-20T06:44:01;4.70;99.90
35962;DHT22;22044;48.298;10.008;2023-02-20T06:46:46;4.80;99.90
35962;DHT22;22044;48.298;10.008;2023-02-20T06:49:33;4.70;99.90
35962;DHT22;22044;48.298;10.008;2023-02-20T06:52:19;4.70;99.90
35962;DHT22;22044;48.298;10.008;2023-02-20T06:55:05;4.70;99.90
35962;DHT22;22044;48.298;10.008;2023-02-20T06:57:52;4.70;99.90
35962;DHT22;22044;48.298;10.008;2023-02-20T07:00:37;4.70;99.90
35962;DHT22;22044;48.298;10.008;2023-02-20T07:03:23;4.80;99.90
35962;DHT22;22044;48.298;10.008;2023-02-20T07:06:10;4.80;99.90
35962;DHT22;22044;48.298;10.008;2023-02-20T07:08:55;4.80;99.90
35962;DHT22;22044;48.298;10.008;2023-02-20T07:11:41;4.80;99.90
35962;DHT22;22044;48.298;10.008;2023-02-20T07:14:27;4.90;99.90
35962;DHT22;22044;48.298;10.008;2023-02-20T07:17:12;4.90;99.90
35962;DHT22;22044;48.298;10.008;2023-02-20T07:19:58;4.90;99.90
35962;DHT22;22044;48.298;10.008;2023-02-20T07:22:50;4.90;99.90
35962;DHT22;22044;48.298;10.008;2023-02-20T07:25:37;5.00;99.90
35962;DHT22;22044;48.298;10.008;2023-02-20T07:28:22;5.00;99.90
35962;DHT22;22044;48.298;10.008;2023-02-20T07:31:08;5.10;99.90
35962;DHT22;22044;48.298;10.008;2023-02-20T07:33:55;5.20;99.90
35962;DHT22;22044;48.298;10.008;2023-02-20T07:36:41;5.30;99.90
35962;DHT22;22044;48.298;10.008;2023-02-20T07:39:28;5.30;99.90
35962;DHT22;22044;48.298;10.008;2023-02-20T07:42:13;5.50;99.90
35962;DHT22;22044;48.298;10.008;2023-02-20T07:45:09;5.60;99.90
35962;DHT22;22044;48.298;10.008;2023-02-20T07:47:55;5.70;99.90
35962;DHT22;22044;48.298;10.008;2023-02-20T07:50:40;5.70;99.90
35962;DHT22;22044;48.298;10.008;2023-02-20T07:53:26;6.00;99.90
35962;DHT22;22044;48.298;10.008;2023-02-20T07:56:13;6.20;99.90
35962;DHT22;22044;48.298;10.008;2023-02-20T07:58:58;6.50;99.90
35962;DHT22;22044;48.298;10.008;2023-02-20T08:01:44;7.00;99.90
35962;DHT22;22044;48.298;10.008;2023-02-20T08:04:29;7.60;99.90
35962;DHT22;22044;48.298;10.008;2023-02-20T08:07:15;8.40;99.90
35962;DHT22;22044;48.298;10.008;2023-02-20T08:10:01;9.00;99.90
35962;DHT22;22044;48.298;10.008;2023-02-20T08:12:49;9.50;99.90
35962;DHT22;22044;48.298;10.008;2023-02-20T08:15:35;9.80;99.90
35962;DHT22;22044;48.298;10.008;2023-02-20T08:18:21;10.10;99.90
35962;DHT22;22044;48.298;10.008;2023-02-20T08:21:07;10.70;99.90
35962;DHT22;22044;48.298;10.008;2023-02-20T08:23:52;10.40;99.90
35962;DHT22;22044;48.298;10.008;2023-02-20T08:26:42;10.30;99.90
35962;DHT22;22044;48.298;10.008;2023-02-20T08:29:30;10.10;99.90
35962;DHT22;22044;48.298;10.008;2023-02-20T08:32:15;9.60;99.90
35962;DHT22;22044;48.298;10.008;2023-02-20T08:35:01;9.50;99.90
35962;DHT22;22044;48.298;10.008;2023-02-20T08:37:47;9.80;99.90
35962;DHT22;22044;48.298;10.008;2023-02-20T08:40:32;10.30;99.90
35962;DHT22;22044;48.298;10.008;2023-02-20T08:43:18;11.40;99.90
35962;DHT22;22044;48.298;10.008;2023-02-20T08:46:06;12.50;99.90
35962;DHT22;22044;48.298;10.008;2023-02-20T08:48:51;13.10;99.90
35962;DHT22;22044;48.298;10.008;2023-02-20T08:51:37;13.70;99.90
35962;DHT22;22044;48.298;10.008;2023-02-20T08:54:22;14.00;99.90
35962;DHT22;22044;48.298;10.008;2023-02-20T08:57:08;13.90;99.90
35962;DHT22;22044;48.298;10.008;2023-02-20T08:59:54;15.00;99.90
35962;DHT22;22044;48.298;10.008;2023-02-20T09:02:40;15.30;99.90
35962;DHT22;22044;48.298;10.008;2023-02-20T09:05:26;15.70;99.90
35962;DHT22;22044;48.298;10.008;2023-02-20T09:08:12;15.40;99.90
35962;DHT22;22044;48.298;10.008;2023-02-20T09:10:58;15.70;99.90
35962;DHT22;22044;48.298;10.008;2023-02-20T09:13:44;14.90;99.90
35962;DHT22;22044;48.298;10.008;2023-02-20T09:16:30;14.70;99.90
35962;DHT22;22044;48.298;10.008;2023-02-20T09:19:17;14.20;99.90
35962;DHT22;22044;48.298;10.008;2023-02-20T09:22:04;12.60;99.90
35962;DHT22;22044;48.298;10.008;2023-02-20T09:24:50;12.40;99.90
35962;DHT22;22044;48.298;10.008;2023-02-20T09:27:36;11.80;99.90
35962;DHT22;22044;48.298;10.008;2023-02-20T09:30:21;11.40;99.90
35962;DHT22;22044;48.298;10.008;2023-02-20T09:33:07;11.40;99.90
35962;DHT22;22044;48.298;10.008;2023-02-20T09:35:54;10.80;99.90
35962;DHT22;22044;48.298;10.008;2023-02-20T09:38:40;10.60;99.90
35962;DHT22;22044;48.298;10.008;2023-02-20T09:41:42;10.20;99.90
35962;DHT22;22044;48.298;10.008;2023-02-20T09:44:37;10.30;99.90
35962;DHT22;22044;48.298;10.008;2023-02-20T09:47:29;9.90;99.90
35962;DHT22;22044;48.298;10.008;2023-02-20T09:50:23;9.50;99.90
35962;DHT22;22044;48.298;10.008;2023-02-20T09:53:21;9.60;99.90
35962;DHT22;22044;48.298;10.008;2023-02-20T09:56:12;10.00;99.90
35962;DHT22;22044;48.298;10.008;2023-02-20T09:59:03;10.10;99.90
35962;DHT22;22044;48.298;10.008;2023-02-20T10:01:52;10.20;99.90
35962;DHT22;22044;48.298;10.008;2023-02-20T10:04:42;10.10;99.90
35962;DHT22;22044;48.298;10.008;2023-02-20T10:07:29;10.20;99.90
35962;DHT22;22044;48.298;10.008;2023-02-20T10:10:20;10.20;99.90
35962;DHT22;22044;48.298;10.008;2023-02-20T10:13:15;10.30;99.90
35962;DHT22;22044;48.298;10.008;2023-02-20T10:16:15;10.40;99.90
35962;DHT22;22044;48.298;10.008;2023-02-20T10:19:15;10.60;99.90
35962;DHT22;22044;48.298;10.008;2023-02-20T10:22:06;10.50;99.90
35962;DHT22;22044;48.298;10.008;2023-02-20T10:25:02;10.60;99.90
35962;DHT22;22044;48.298;10.008;2023-02-20T10:27:53;10.60;99.90
35962;DHT22;22044;48.298;10.008;2023-02-20T10:30:43;10.50;99.90
35962;DHT22;22044;48.298;10.008;2023-02-20T10:33:32;10.50;99.90
35962;DHT22;22044;48.298;10.008;2023-02-20T10:36:24;10.50;99.90
35962;DHT22;22044;48.298;10.008;2023-02-20T10:39:12;10.60;99.90
35962;DHT22;22044;48.298;10.008;2023-02-20T10:42:02;10.70;99.90
35962;DHT22;22044;48.298;10.008;2023-02-20T10:44:59;10.80;99.90
35962;DHT22;22044;48.298;10.008;2023-02-20T10:47:47;11.00;99.90
35962;DHT22;22044;48.298;10.008;2023-02-20T10:50:39;11.10;99.90
35962;DHT22;22044;48.298;10.008;2023-02-20T10:53:30;11.20;99.90
35962;DHT22;22044;48.298;10.008;2023-02-20T10:56:19;11.10;99.90
35962;DHT22;22044;48.298;10.008;2023-02-20T10:59:14;11.20;99.90
35962;DHT22;22044;48.298;10.008;2023-02-20T11:02:04;11.20;99.90
35962;DHT22;22044;48.298;10.008;2023-02-20T11:04:56;11.20;99.90
35962;DHT22;22044;48.298;10.008;2023-02-20T11:07:42;11.10;99.90
35962;DHT22;22044;48.298;10.008;2023-02-20T11:10:27;11.20;99.90
35962;DHT22;22044;48.298;10.008;2023-02-20T11:13:17;11.40;99.90
35962;DHT22;22044;48.298;10.008;2023-02-20T11:16:04;11.50;99.90
35962;DHT22;22044;48.298;10.008;2023-02-20T11:19:06;11.30;99.90
35962;DHT22;22044;48.298;10.008;2023-02-20T11:21:53;11.30;99.90
35962;DHT22;22044;48.298;10.008;2023-02-20T11:24:39;11.30;99.90
35962;DHT22;22044;48.298;10.008;2023-02-20T11:27:26;11.40;99.90
35962;DHT22;22044;48.298;10.008;2023-02-20T11:30:27;11.40;99.90
35962;DHT22;22044;48.298;10.008;2023-02-20T11:33:16;11.40;99.90
35962;DHT22;22044;48.298;10.008;2023-02-20T11:36:11;11.40;99.90
35962;DHT22;22044;48.298;10.008;2023-02-20T11:39:00;11.50;99.90
35962;DHT22;22044;48.298;10.008;2023-02-20T11:41:47;11.60;99.90
35962;DHT22;22044;48.298;10.008;2023-02-20T11:44:34;11.60;99.90
35962;DHT22;22044;48.298;10.008;2023-02-20T11:47:25;11.60;99.90
35962;DHT22;22044;48.298;10.008;2023-02-20T11:50:13;11.60;99.90
35962;DHT22;22044;48.298;10.008;2023-02-20T11:53:03;11.70;99.90
35962;DHT22;22044;48.298;10.008;2023-02-20T11:56:05;11.80;99.90
35962;DHT22;22044;48.298;10.008;2023-02-20T11:58:51;12.00;99.90
35962;DHT22;22044;48.298;10.008;2023-02-20T12:01:37;12.10;99.90
35962;DHT22;22044;48.298;10.008;2023-02-20T12:04:23;12.10;99.90
35962;DHT22;22044;48.298;10.008;2023-02-20T12:07:26;12.10;99.90
35962;DHT22;22044;48.298;10.008;2023-02-20T12:10:22;12.20;99.90
35962;DHT22;22044;48.298;10.008;2023-02-20T12:13:12;12.20;99.90
35962;DHT22;22044;48.298;10.008;2023-02-20T12:16:06;12.10;99.90
35962;DHT22;22044;48.298;10.008;2023-02-20T12:18:57;12.20;99.90
35962;DHT22;22044;48.298;10.008;2023-02-20T12:21:57;12.20;99.90
35962;DHT22;22044;48.298;10.008;2023-02-20T12:28:09;12.50;99.90
35962;DHT22;22044;48.298;10.008;2023-02-20T12:31:16;12.40;99.90
35962;DHT22;22044;48.298;10.008;2023-02-20T12:34:22;12.60;99.90
35962;DHT22;22044;48.298;10.008;2023-02-20T12:37:18;12.60;99.90
35962;DHT22;22044;48.298;10.008;2023-02-20T12:40:27;12.80;99.90
35962;DHT22;22044;48.298;10.008;2023-02-20T12:43:23;12.80;99.90
35962;DHT22;22044;48.298;10.008;2023-02-20T12:46:15;12.70;99.90
35962;DHT22;22044;48.298;10.008;2023-02-20T12:49:13;12.90;99.90
35962;DHT22;22044;48.298;10.008;2023-02-20T12:52:05;13.00;99.90
35962;DHT22;22044;48.298;10.008;2023-02-20T12:54:59;12.90;99.90
35962;DHT22;22044;48.298;10.008;2023-02-20T12:57:49;13.10;99.90
35962;DHT22;22044;48.298;10.008;2023-02-20T13:00:39;13.00;99.90
35962;DHT22;22044;48.298;10.008;2023-02-20T13:03:36;13.10;99.90
35962;DHT22;22044;48.298;10.008;2023-02-20T13:06:27;13.20;99.90
35962;DHT22;22044;48.298;10.008;2023-02-20T13:09:19;13.20;99.90
35962;DHT22;22044;48.298;10.008;2023-02-20T13:12:09;13.10;99.90
35962;DHT22;22044;48.298;10.008;2023-02-20T13:15:04;13.10;99.90
35962;DHT22;22044;48.298;10.008;2023-02-20T13:17:57;13.20;99.90
35962;DHT22;22044;48.298;10.008;2023-02-20T13:20:45;13.10;99.90
35962;DHT22;22044;48.298;10.008;2023-02-20T13:23:34;13.20;99.90
35962;DHT22;22044;48.298;10.008;2023-02-20T13:26:45;13.40;99.90
35962;DHT22;22044;48.298;10.008;2023-02-20T13:29:33;13.40;99.90
35962;DHT22;22044;48.298;10.008;2023-02-20T13:32:25;13.40;99.90
35962;DHT22;22044;48.298;10.008;2023-02-20T13:35:37;13.50;99.90
35962;DHT22;22044;48.298;10.008;2023-02-20T13:38:29;13.50;99.90
35962;DHT22;22044;48.298;10.008;2023-02-20T13:41:14;13.50;99.90
35962;DHT22;22044;48.298;10.008;2023-02-20T13:44:31;13.50;99.90
35962;DHT22;22044;48.298;10.008;2023-02-20T13:47:30;13.60;99.90
35962;DHT22;22044;48.298;10.008;2023-02-20T13:50:29;13.60;99.90
35962;DHT22;22044;48.298;10.008;2023-02-20T13:53:17;13.50;99.90
35962;DHT22;22044;48.298;10.008;2023-02-20T13:56:03;13.50;99.90
35962;DHT22;22044;48.298;10.008;2023-02-20T13:58:49;13.60;99.90
35962;DHT22;22044;48.298;10.008;2023-02-20T14:01:54;13.60;99.90
35962;DHT22;22044;48.298;10.008;2023-02-20T14:04:54;13.70;99.90
35962;DHT22;22044;48.298;10.008;2023-02-20T14:07:44;13.60;99.90
35962;DHT22;22044;48.298;10.008;2023-02-20T14:10:33;13.70;99.90
35962;DHT22;22044;48.298;10.008;2023-02-20T14:13:21;13.70;99.90
35962;DHT22;22044;48.298;10.008;2023-02-20T14:16:27;13.70;99.90
35962;DHT22;22044;48.298;10.008;2023-02-20T14:19:15;13.70;99.90
35962;DHT22;22044;48.298;10.008;2023-02-20T14:22:13;13.80;99.90
35962;DHT22;22044;48.298;10.008;2023-02-20T14:25:20;13.90;99.90
35962;DHT22;22044;48.298;10.008;2023-02-20T14:28:11;13.90;99.90
35962;DHT22;22044;48.298;10.008;2023-02-20T14:31:19;13.90;99.90
35962;DHT22;22044;48.298;10.008;2023-02-20T14:34:08;13.80;99.90
35962;DHT22;22044;48.298;10.008;2023-02-20T14:37:02;13.90;99.90
35962;DHT22;22044;48.298;10.008;2023-02-20T14:39:54;13.90;99.90
35962;DHT22;22044;48.298;10.008;2023-02-20T14:42:44;13.90;99.90
35962;DHT22;22044;48.298;10.008;2023-02-20T14:45:33;13.90;99.90
35962;DHT22;22044;48.298;10.008;2023-02-20T14:48:24;14.00;99.90
35962;DHT22;22044;48.298;10.008;2023-02-20T14:51:13;14.00;99.90
35962;DHT22;22044;48.298;10.008;2023-02-20T14:54:01;14.00;99.90
35962;DHT22;22044;48.298;10.008;2023-02-20T14:56:48;14.00;99.90
35962;DHT22;22044;48.298;10.008;2023-02-20T14:59:36;13.90;99.90
35962;DHT22;22044;48.298;10.008;2023-02-20T15:02:26;14.00;99.90
35962;DHT22;22044;48.298;10.008;2023-02-20T15:05:14;14.00;99.90
35962;DHT22;22044;48.298;10.008;2023-02-20T15:08:14;13.90;99.90
35962;DHT22;22044;48.298;10.008;2023-02-20T15:11:08;13.90;99.90
35962;DHT22;22044;48.298;10.008;2023-02-20T15:13:54;13.90;99.90
35962;DHT22;22044;48.298;10.008;2023-02-20T15:16:41;13.80;99.90
35962;DHT22;22044;48.298;10.008;2023-02-20T15:19:35;13.80;99.90
35962;DHT22;22044;48.298;10.008;2023-02-20T15:22:33;13.80;99.90
35962;DHT22;22044;48.298;10.008;2023-02-20T15:25:27;13.70;99.90
35962;DHT22;22044;48.298;10.008;2023-02-20T15:28:26;13.70;99.90
35962;DHT22;22044;48.298;10.008;2023-02-20T15:31:20;13.70;99.90
35962;DHT22;22044;48.298;10.008;2023-02-20T15:34:17;13.70;99.90
35962;DHT22;22044;48.298;10.008;2023-02-20T15:37:17;13.70;99.90
35962;DHT22;22044;48.298;10.008;2023-02-20T15:40:08;13.50;99.90
35962;DHT22;22044;48.298;10.008;2023-02-20T15:43:00;13.50;99.90
35962;DHT22;22044;48.298;10.008;2023-02-20T15:45:46;13.40;99.90
35962;DHT22;22044;48.298;10.008;2023-02-20T15:48:31;13.40;99.90
35962;DHT22;22044;48.298;10.008;2023-02-20T15:51:19;13.40;99.90
35962;DHT22;22044;48.298;10.008;2023-02-20T15:54:13;13.30;99.90
35962;DHT22;22044;48.298;10.008;2023-02-20T15:56:59;13.30;99.90
35962;DHT22;22044;48.298;10.008;2023-02-20T15:59:45;13.20;99.90
35962;DHT22;22044;48.298;10.008;2023-02-20T16:02:31;13.10;99.90
35962;DHT22;22044;48.298;10.008;2023-02-20T16:05:16;13.10;99.90
35962;DHT22;22044;48.298;10.008;2023-02-20T16:08:02;13.10;99.90
35962;DHT22;22044;48.298;10.008;2023-02-20T16:10:50;13.00;99.90
35962;DHT22;22044;48.298;10.008;2023-02-20T16:13:38;13.00;99.90
35962;DHT22;22044;48.298;10.008;2023-02-20T16:16:31;12.90;99.90
35962;DHT22;22044;48.298;10.008;2023-02-20T16:19:19;12.80;99.90
35962;DHT22;22044;48.298;10.008;2023-02-20T16:22:05;12.80;99.90
35962;DHT22;22044;48.298;10.008;2023-02-20T16:24:50;12.80;99.90
35962;DHT22;22044;48.298;10.008;2023-02-20T16:27:37;12.70;99.90
35962;DHT22;22044;48.298;10.008;2023-02-20T16:30:27;12.60;99.90
35962;DHT22;22044;48.298;10.008;2023-02-20T16:33:15;12.50;99.90
35962;DHT22;22044;48.298;10.008;2023-02-20T16:36:01;12.40;99.90
35962;DHT22;22044;48.298;10.008;2023-02-20T16:38:47;12.40;99.90
35962;DHT22;22044;48.298;10.008;2023-02-20T16:41:32;12.30;99.90
35962;DHT22;22044;48.298;10.008;2023-02-20T16:44:22;12.30;99.90
35962;DHT22;22044;48.298;10.008;2023-02-20T16:47:09;12.20;99.90
35962;DHT22;22044;48.298;10.008;2023-02-20T16:49:56;12.20;99.90
35962;DHT22;22044;48.298;10.008;2023-02-20T16:52:45;12.10;99.90
35962;DHT22;22044;48.298;10.008;2023-02-20T16:55:34;12.10;99.90
35962;DHT22;22044;48.298;10.008;2023-02-20T16:58:20;12.00;99.90
35962;DHT22;22044;48.298;10.008;2023-02-20T17:01:07;11.90;99.90
35962;DHT22;22044;48.298;10.008;2023-02-20T17:03:53;11.70;99.90
35962;DHT22;22044;48.298;10.008;2023-02-20T17:06:39;11.70;99.90
35962;DHT22;22044;48.298;10.008;2023-02-20T17:09:24;11.40;99.90
35962;DHT22;22044;48.298;10.008;2023-02-20T17:12:10;11.20;99.90
35962;DHT22;22044;48.298;10.008;2023-02-20T17:14:56;11.10;99.90
35962;DHT22;22044;48.298;10.008;2023-02-20T17:17:44;11.00;99.90
35962;DHT22;22044;48.298;10.008;2023-02-20T17:20:29;10.80;99.90
35962;DHT22;22044;48.298;10.008;2023-02-20T17:23:15;10.80;99.90
35962;DHT22;22044;48.298;10.008;2023-02-20T17:26:01;10.80;99.90
35962;DHT22;22044;48.298;10.008;2023-02-20T17:28:46;10.80;99.90
35962;DHT22;22044;48.298;10.008;2023-02-20T17:31:32;10.70;99.90
35962;DHT22;22044;48.298;10.008;2023-02-20T17:34:19;10.60;99.90
35962;DHT22;22044;48.298;10.008;2023-02-20T17:37:06;10.30;99.90
35962;DHT22;22044;48.298;10.008;2023-02-20T17:39:54;10.10;99.90
35962;DHT22;22044;48.298;10.008;2023-02-20T17:42:39;10.00;99.90
35962;DHT22;22044;48.298;10.008;2023-02-20T17:45:25;9.90;99.90
35962;DHT22;22044;48.298;10.008;2023-02-20T17:48:10;10.00;99.90
35962;DHT22;22044;48.298;10.008;2023-02-20T17:50:58;10.00;99.90